Time;durP1;ratioP1;P1;durP2;ratioP2;P2;SDS_P1;SDS_P2;PMS_P1;PMS_P2;Temp;Humidity;BMP_temperature;BMP_pressure;BME280_temperature;BME280_humidity;BME280_pressure;Samples;Min_cycle;Max_cycle;Signal;HPM_P1;HPM_P2
2022/09/04 00:00:43;;;;;;;3.07;2.70;;;16.70;1.00;;;;;;5053379;28;20425;-72
2022/09/04 00:03:22;;;;;;;7.67;2.00;;;16.60;1.00;;;;;;5052675;28;20433;-72
2022/09/04 00:05:53;;;;;;;2.63;2.43;;;16.60;1.00;;;;;;5052530;28;20426;-72
2022/09/04 00:08:42;;;;;;;5.93;2.20;;;16.60;1.00;;;;;;5052285;28;20478;-72
2022/09/04 00:11:15;;;;;;;3.80;2.70;;;16.60;1.00;;;;;;5052854;28;21004;-72
2022/09/04 00:13:46;;;;;;;5.63;2.50;;;16.60;1.00;;;;;;5052417;28;21030;-72
2022/09/04 00:16:18;;;;;;;4.13;2.40;;;16.60;1.00;;;;;;5053110;28;21008;-72
2022/09/04 00:18:49;;;;;;;2.87;2.67;;;16.50;1.00;;;;;;5056261;28;20465;-72
2022/09/04 00:21:21;;;;;;;3.30;1.93;;;16.50;1.00;;;;;;5056043;28;20509;-72
2022/09/04 00:23:55;;;;;;;5.67;2.87;;;16.40;1.00;;;;;;5056257;28;20453;-73
2022/09/04 00:26:38;;;;;;;2.93;2.63;;;16.50;1.00;;;;;;5056320;28;20429;-71
2022/09/04 00:29:12;;;;;;;4.33;2.57;;;16.50;1.00;;;;;;5056189;28;20466;-72
2022/09/04 00:31:47;;;;;;;3.13;2.70;;;16.50;1.00;;;;;;5056170;28;20430;-71
2022/09/04 00:34:23;;;;;;;2.50;2.20;;;16.80;1.00;;;;;;5056431;28;20433;-72
2022/09/04 00:36:55;;;;;;;5.33;2.03;;;16.50;1.00;;;;;;5055724;28;20539;-71
2022/09/04 00:39:38;;;;;;;6.83;2.60;;;16.30;1.00;;;;;;5056038;28;20426;-71
2022/09/04 00:42:16;;;;;;;3.33;2.33;;;16.30;1.00;;;;;;5056006;28;20440;-71
2022/09/04 00:44:52;;;;;;;2.50;2.30;;;16.30;1.00;;;;;;5055626;28;20910;-71
2022/09/04 00:47:38;;;;;;;5.53;2.40;;;16.20;1.00;;;;;;5055468;28;20468;-72
2022/09/04 00:50:39;;;;;;;3.67;2.33;;;16.30;1.00;;;;;;5055752;28;20456;-71
2022/09/04 00:53:36;;;;;;;2.20;1.67;;;16.20;1.00;;;;;;5055605;28;20441;-71
2022/09/04 00:56:24;;;;;;;2.40;1.97;;;16.20;1.00;;;;;;5029870;28;20492;-71
2022/09/04 00:59:01;;;;;;;3.87;2.17;;;16.30;1.00;;;;;;5055489;28;20469;-72
2022/09/04 01:01:28;;;;;;;2.17;2.07;;;16.10;1.00;;;;;;5055492;28;20430;-71
2022/09/04 01:04:18;;;;;;;5.60;2.70;;;16.10;1.00;;;;;;5055655;28;20446;-71
2022/09/04 01:06:59;;;;;;;4.53;2.30;;;16.10;1.00;;;;;;5046371;28;20446;-71
2022/09/04 01:09:56;;;;;;;2.90;2.27;;;16.00;1.00;;;;;;5056338;28;20433;-72
2022/09/04 01:12:35;;;;;;;2.17;1.93;;;16.00;1.00;;;;;;5059031;28;20433;-72
2022/09/04 01:15:13;;;;;;;2.53;2.13;;;16.00;1.00;;;;;;5057038;28;20438;-72
2022/09/04 01:17:50;;;;;;;2.07;1.90;;;16.00;1.00;;;;;;5055607;28;20496;-71
2022/09/04 01:20:24;;;;;;;2.80;2.60;;;16.00;1.00;;;;;;5055694;28;20437;-73
2022/09/04 01:23:30;;;;;;;1.80;1.70;;;16.00;1.00;;;;;;5056799;28;20933;-72
2022/09/04 01:26:06;;;;;;;4.00;2.30;;;15.90;1.00;;;;;;5046114;28;20442;-72
2022/09/04 01:28:42;;;;;;;2.60;1.67;;;15.90;1.00;;;;;;5054361;28;20461;-72
2022/09/04 01:31:20;;;;;;;6.83;1.80;;;15.90;1.00;;;;;;5055080;28;20438;-72
2022/09/04 01:33:54;;;;;;;2.90;2.10;;;15.90;1.00;;;;;;5055095;28;20425;-71
2022/09/04 01:36:30;;;;;;;2.60;2.40;;;15.90;1.00;;;;;;5054752;28;20465;-71
2022/09/04 01:39:00;;;;;;;2.90;2.47;;;15.90;1.00;;;;;;5054372;28;21004;-71
2022/09/04 01:41:32;;;;;;;1.80;1.70;;;15.80;1.00;;;;;;5054390;28;20454;-72
2022/09/04 01:43:59;;;;;;;2.27;2.03;;;15.80;1.00;;;;;;5054621;28;20438;-71
2022/09/04 01:46:44;;;;;;;3.97;2.17;;;15.80;1.00;;;;;;5054391;28;20449;-72
2022/09/04 01:49:23;;;;;;;2.63;2.43;;;15.80;1.00;;;;;;5054539;28;20434;-72
2022/09/04 01:51:58;;;;;;;4.00;1.87;;;15.70;1.00;;;;;;5054600;28;20426;-70
2022/09/04 01:54:37;;;;;;;4.30;1.70;;;15.70;1.00;;;;;;5054656;28;20433;-71
2022/09/04 01:57:17;;;;;;;2.47;1.83;;;15.60;1.00;;;;;;5054393;28;20518;-70
2022/09/04 01:59:57;;;;;;;2.40;2.20;;;15.60;1.00;;;;;;5054397;28;20430;-71
2022/09/04 02:02:27;;;;;;;3.43;1.77;;;15.60;1.00;;;;;;5054500;28;20910;-71
2022/09/04 02:04:59;;;;;;;2.33;2.10;;;15.60;1.00;;;;;;5054336;28;20440;-71
2022/09/04 02:07:32;;;;;;;2.40;1.60;;;15.50;1.00;;;;;;5054033;28;20485;-72
2022/09/04 02:10:08;;;;;;;1.90;1.80;;;15.50;1.00;;;;;;5054216;28;20438;-71
2022/09/04 02:12:49;;;;;;;3.03;1.93;;;15.50;1.00;;;;;;5054097;28;20437;-72
2022/09/04 02:15:29;;;;;;;1.83;1.33;;;15.40;1.00;;;;;;5054195;28;20462;-71
2022/09/04 02:18:05;;;;;;;3.43;1.90;;;15.40;1.00;;;;;;5053711;28;20486;-72
2022/09/04 02:20:32;;;;;;;2.33;1.30;;;15.40;1.00;;;;;;5054060;28;20431;-71
2022/09/04 02:23:10;;;;;;;1.27;1.17;;;15.40;1.00;;;;;;5053942;28;20472;-71
2022/09/04 02:25:47;;;;;;;4.77;2.23;;;15.30;1.00;;;;;;5053930;28;20461;-71
2022/09/04 02:28:26;;;;;;;1.70;1.60;;;15.30;1.00;;;;;;5053802;28;20473;-71
2022/09/04 02:31:01;;;;;;;2.73;1.43;;;15.30;1.00;;;;;;5054028;28;20438;-72
2022/09/04 02:33:35;;;;;;;3.13;2.13;;;15.20;1.00;;;;;;5053907;28;20491;-72
2022/09/04 02:36:07;;;;;;;1.88;1.40;;;15.10;1.00;;;;;;5053091;28;20447;-72
2022/09/04 02:38:44;;;;;;;1.77;1.67;;;15.20;1.00;;;;;;5054096;28;20227;-72
2022/09/04 02:41:21;;;;;;;2.30;1.73;;;15.20;1.00;;;;;;5053446;28;20787;-72
2022/09/04 02:44:04;;;;;;;2.30;1.87;;;15.20;1.00;;;;;;5053598;28;20426;-72
2022/09/04 02:46:40;;;;;;;2.40;1.90;;;15.20;1.00;;;;;;5053578;28;20436;-72
2022/09/04 02:49:13;;;;;;;3.20;1.90;;;15.10;1.00;;;;;;5053624;28;20461;-72
2022/09/04 02:51:54;;;;;;;2.90;2.03;;;15.10;1.00;;;;;;5053214;28;20434;-72
2022/09/04 02:54:38;;;;;;;1.73;1.60;;;15.10;1.00;;;;;;5053137;28;20965;-72
2022/09/04 02:57:19;;;;;;;2.37;1.70;;;15.10;1.00;;;;;;5053216;28;20488;-71
2022/09/04 02:59:58;;;;;;;3.13;1.60;;;15.10;1.00;;;;;;5053786;28;20946;-72
2022/09/04 03:02:31;;;;;;;3.37;1.70;;;15.10;1.00;;;;;;5053738;28;20214;-72
2022/09/04 03:05:05;;;;;;;2.20;1.97;;;15.10;1.00;;;;;;5053286;28;20441;-72
2022/09/04 03:07:36;;;;;;;2.13;1.73;;;15.10;1.00;;;;;;5052962;28;20473;-72
2022/09/04 03:10:11;;;;;;;2.03;1.80;;;15.10;1.00;;;;;;5053547;28;20790;-72
2022/09/04 03:12:44;;;;;;;1.80;1.63;;;15.10;1.00;;;;;;5053305;28;20813;-72
2022/09/04 03:15:22;;;;;;;1.80;1.70;;;15.10;1.00;;;;;;5053090;28;20437;-71
2022/09/04 03:17:57;;;;;;;1.53;1.40;;;15.10;1.00;;;;;;5052764;28;20997;-73
2022/09/04 03:20:26;;;;;;;2.53;1.30;;;15.10;1.00;;;;;;5053274;28;20434;-72
2022/09/04 03:23:01;;;;;;;2.30;2.00;;;15.00;1.00;;;;;;5053982;28;20457;-72
2022/09/04 03:25:58;;;;;;;2.20;1.33;;;15.00;1.00;;;;;;5053932;28;20429;-72
2022/09/04 03:28:35;;;;;;;1.73;1.63;;;15.00;1.00;;;;;;5042727;28;20548;-71
2022/09/04 03:31:18;;;;;;;1.40;1.30;;;15.00;1.00;;;;;;5053242;28;20432;-72
2022/09/04 03:33:52;;;;;;;2.47;1.57;;;15.00;1.00;;;;;;5053368;28;20468;-72
2022/09/04 03:36:27;;;;;;;1.90;1.33;;;15.00;1.00;;;;;;5052637;28;20983;-72
2022/09/04 03:39:03;;;;;;;1.50;1.40;;;15.00;1.00;;;;;;5054403;28;20560;-72
2022/09/04 03:41:51;;;;;;;2.30;1.40;;;15.00;1.00;;;;;;5053630;28;20429;-72
2022/09/04 03:44:30;;;;;;;1.60;1.50;;;15.00;1.00;;;;;;5053413;28;20925;-72
2022/09/04 03:47:05;;;;;;;4.93;1.60;;;15.10;1.00;;;;;;5053552;28;20491;-72
2022/09/04 03:49:43;;;;;;;2.23;1.50;;;14.90;1.00;;;;;;5052723;28;20441;-72
2022/09/04 03:52:18;;;;;;;1.97;1.83;;;14.90;1.00;;;;;;5056223;28;20433;-72
2022/09/04 03:54:57;;;;;;;2.33;1.73;;;14.90;1.00;;;;;;5061960;28;20437;-72
2022/09/04 03:57:40;;;;;;;3.17;1.80;;;14.90;1.00;;;;;;5061512;28;20496;-72
2022/09/04 04:00:11;;;;;;;3.93;1.80;;;14.90;1.00;;;;;;5057879;28;20426;-72
2022/09/04 04:02:52;;;;;;;2.10;1.40;;;14.80;1.00;;;;;;5057536;28;20425;-72
2022/09/04 04:05:39;;;;;;;1.53;1.30;;;14.90;1.00;;;;;;5057291;28;20804;-72
2022/09/04 04:08:41;;;;;;;1.30;1.20;;;14.80;1.00;;;;;;5077284;22;20584;-82
2022/09/04 04:11:29;;;;;;;1.53;1.43;;;14.80;1.00;;;;;;5073859;28;20497;-82
2022/09/04 04:14:23;;;;;;;2.47;2.27;;;14.70;1.00;;;;;;5073232;28;20421;-81
2022/09/04 04:17:00;;;;;;;1.50;1.40;;;14.70;1.00;;;;;;5062982;28;20478;-80
2022/09/04 04:20:01;;;;;;;1.73;1.63;;;14.60;5.00;;;;;;5076909;28;20469;-81
2022/09/04 04:22:48;;;;;;;3.13;1.37;;;14.60;1.00;;;;;;5079297;28;20462;-79
2022/09/04 04:25:26;;;;;;;3.20;1.40;;;14.60;1.00;;;;;;5076616;28;20460;-81
2022/09/04 04:28:06;;;;;;;1.70;1.60;;;14.50;1.00;;;;;;5074471;28;20469;-81
2022/09/04 04:30:44;;;;;;;2.23;1.50;;;14.50;1.00;;;;;;5074257;28;20434;-80
2022/09/04 04:33:41;;;;;;;2.37;1.70;;;14.50;1.00;;;;;;5073084;28;20995;-81
2022/09/04 04:36:21;;;;;;;2.07;1.60;;;14.40;1.00;;;;;;5068537;28;20958;-81
2022/09/04 04:39:02;;;;;;;1.93;1.47;;;14.40;1.00;;;;;;5073899;28;20900;-81
2022/09/04 04:47:24;;;;;;;1.70;1.60;;;14.10;1.00;;;;;;5072454;28;20500;-85
2022/09/04 04:50:03;;;;;;;2.67;1.63;;;14.20;1.00;;;;;;5073234;28;20762;-80
2022/09/04 04:52:48;;;;;;;1.50;1.40;;;14.20;1.00;;;;;;5073130;28;20430;-81
2022/09/04 04:55:22;;;;;;;2.37;1.70;;;14.20;1.00;;;;;;5072235;28;20502;-80
2022/09/04 04:58:17;;;;;;;4.47;1.70;;;14.20;1.00;;;;;;5072438;28;20496;-80
2022/09/04 05:00:50;;;;;;;3.27;1.73;;;14.20;1.00;;;;;;5067920;28;20438;-81
2022/09/04 05:03:23;;;;;;;12.10;8.73;;;14.20;1.00;;;;;;5070738;28;20437;-82
2022/09/04 05:06:01;;;;;;;2.30;1.40;;;14.20;1.00;;;;;;5070616;28;20455;-81
2022/09/04 05:08:37;;;;;;;2.17;1.97;;;14.20;1.00;;;;;;5071655;28;20286;-80
2022/09/04 05:11:10;;;;;;;2.23;2.00;;;14.20;1.00;;;;;;5071180;28;20494;-82
2022/09/04 05:13:47;;;;;;;2.90;1.83;;;14.20;1.00;;;;;;5071180;28;20429;-79
2022/09/04 05:16:22;;;;;;;2.03;1.80;;;14.20;1.00;;;;;;5071224;28;20493;-81
2022/09/04 05:18:56;;;;;;;2.20;1.50;;;14.20;1.00;;;;;;5070183;28;20492;-80
2022/09/04 05:21:30;;;;;;;2.47;1.60;;;14.10;1.00;;;;;;5069280;28;20444;-80
2022/09/04 05:24:04;;;;;;;5.45;1.83;;;14.10;1.00;;;;;;5065863;28;20474;-81
2022/09/04 05:26:41;;;;;;;3.20;1.70;;;14.20;1.00;;;;;;5066705;28;20547;-80
2022/09/04 05:29:15;;;;;;;2.50;1.70;;;14.20;1.00;;;;;;5072358;28;20472;-79
2022/09/04 05:31:51;;;;;;;1.90;1.80;;;14.20;1.00;;;;;;5079553;28;20421;-80
2022/09/04 05:34:28;;;;;;;1.93;1.73;;;14.20;1.00;;;;;;5076523;28;20432;-80
2022/09/04 05:37:02;;;;;;;2.30;2.00;;;14.20;1.00;;;;;;5070609;28;20432;-80
2022/09/04 05:39:39;;;;;;;2.10;1.90;;;13.20;96.80;;;;;;5067594;28;20438;-80
2022/09/04 05:42:35;;;;;;;2.27;1.80;;;14.20;1.00;;;;;;5069503;28;20400;-82
2022/09/04 05:45:09;;;;;;;2.93;1.80;;;14.30;1.00;;;;;;5068323;28;20791;-80
2022/09/04 05:47:46;;;;;;;1.47;1.37;;;14.30;1.00;;;;;;5069449;28;20461;-81
2022/09/04 05:50:55;;;;;;;2.70;1.67;;;14.30;1.00;;;;;;5066276;28;20433;-81
2022/09/04 05:53:48;;;;;;;3.83;1.80;;;14.30;1.00;;;;;;5007700;28;20450;-81
2022/09/04 05:56:45;;;;;;;2.33;1.50;;;14.40;1.00;;;;;;5007016;28;20591;-80
2022/09/04 05:59:34;;;;;;;1.90;1.80;;;14.40;1.00;;;;;;5050210;28;20473;-80
2022/09/04 06:02:21;;;;;;;1.80;1.70;;;14.50;1.00;;;;;;5067960;28;20426;-81
2022/09/04 06:05:17;;;;;;;1.97;1.87;;;14.50;1.00;;;;;;5068571;28;20486;-81
2022/09/04 06:07:53;;;;;;;2.60;2.20;;;14.60;1.00;;;;;;5067984;28;20501;-81
2022/09/04 06:10:28;;;;;;;3.23;1.93;;;14.60;1.00;;;;;;5073192;28;20464;-81
2022/09/04 06:13:28;;;;;;;2.03;1.93;;;14.70;1.00;;;;;;5076062;28;20483;-80
2022/09/04 06:16:17;;;;;;;2.33;2.13;;;14.60;1.00;;;;;;5076328;28;20445;-80
2022/09/04 06:18:59;;;;;;;1.97;1.87;;;14.70;1.00;;;;;;5066630;28;20864;-80
2022/09/04 06:21:48;;;;;;;1.77;1.50;;;14.70;1.00;;;;;;5057441;28;20434;-81
2022/09/04 06:24:37;;;;;;;2.00;1.90;;;14.70;1.00;;;;;;5058101;28;20521;-81
2022/09/04 06:27:21;;;;;;;2.37;1.83;;;14.80;1.00;;;;;;5071282;28;20423;-80
2022/09/04 06:30:04;;;;;;;2.03;1.90;;;14.80;1.00;;;;;;5068817;28;20426;-82
2022/09/04 06:33:17;;;;;;;2.40;2.30;;;14.90;1.00;;;;;;5067139;28;20436;-82
2022/09/04 06:35:59;;;;;;;4.13;2.00;;;14.80;1.00;;;;;;4984320;28;20456;-81
2022/09/04 06:38:46;;;;;;;2.40;1.83;;;15.00;61.20;;;;;;5052242;28;20492;-81
2022/09/04 06:41:29;;;;;;;6.33;3.50;;;15.00;1.00;;;;;;5064117;28;20426;-81
2022/09/04 06:44:04;;;;;;;1.90;1.80;;;15.10;1.00;;;;;;5064643;28;20461;-80
2022/09/04 06:46:39;;;;;;;2.03;1.93;;;15.00;1.00;;;;;;5061102;28;20434;-80
2022/09/04 06:49:12;;;;;;;2.17;1.97;;;15.10;1.00;;;;;;5060820;28;20461;-81
2022/09/04 06:51:56;;;;;;;2.33;2.13;;;15.10;1.00;;;;;;5059960;28;20932;-80
2022/09/04 06:54:37;;;;;;;3.03;2.23;;;15.20;1.00;;;;;;5060845;28;20438;-80
2022/09/04 06:57:37;;;;;;;3.67;2.00;;;15.40;1.00;;;;;;5062995;28;20434;-80
2022/09/04 07:00:07;;;;;;;2.10;1.77;;;15.40;1.00;;;;;;5064529;28;20472;-80
2022/09/04 07:03:08;;;;;;;4.87;2.60;;;15.40;1.00;;;;;;5066066;28;20489;-81
2022/09/04 07:05:46;;;;;;;2.63;2.43;;;15.50;1.00;;;;;;5061175;28;20511;-82
2022/09/04 07:08:24;;;;;;;2.20;2.03;;;15.50;1.00;;;;;;5064676;28;20487;-81
2022/09/04 07:11:00;;;;;;;4.20;2.10;;;15.60;1.00;;;;;;5065232;28;20435;-81
2022/09/04 07:14:03;;;;;;;3.77;2.23;;;15.90;22.60;;;;;;5065533;28;20429;-81
2022/09/04 07:16:43;;;;;;;3.03;2.33;;;15.80;1.00;;;;;;5041726;28;20509;-79
2022/09/04 07:19:54;;;;;;;2.23;2.10;;;15.90;1.00;;;;;;5064340;28;20547;-82
2022/09/04 07:23:01;;;;;;;2.83;2.63;;;16.00;1.00;;;;;;5067303;28;20472;-81
2022/09/04 07:25:40;;;;;;;4.40;2.90;;;16.10;1.00;;;;;;5047230;28;20441;-81
2022/09/04 07:28:32;;;;;;;3.20;2.90;;;16.20;1.00;;;;;;5064942;28;20483;-80
2022/09/04 07:31:03;;;;;;;2.60;2.40;;;16.20;1.00;;;;;;5066344;28;20426;-83
2022/09/04 07:33:38;;;;;;;2.47;2.27;;;16.30;1.00;;;;;;5067811;28;20925;-81
2022/09/04 07:36:15;;;;;;;4.27;3.07;;;16.40;1.00;;;;;;5067945;28;20429;-82
2022/09/04 07:38:49;;;;;;;5.00;3.10;;;16.50;1.00;;;;;;5067300;28;20509;-81
2022/09/04 07:41:27;;;;;;;3.00;2.80;;;16.50;1.00;;;;;;5067921;28;20442;-81
2022/09/04 07:44:02;;;;;;;3.23;2.93;;;16.60;1.00;;;;;;5066385;28;20426;-82
2022/09/04 07:46:40;;;;;;;2.60;2.40;;;16.60;34.60;;;;;;5067305;28;20537;-82
2022/09/04 07:49:17;;;;;;;3.00;2.57;;;16.70;1.00;;;;;;5065521;28;20461;-80
2022/09/04 07:51:55;;;;;;;3.10;2.90;;;16.80;1.00;;;;;;5063872;28;20940;-80
2022/09/04 07:54:47;;;;;;;3.53;3.33;;;16.90;1.00;;;;;;5064203;28;20438;-81
2022/09/04 07:57:29;;;;;;;3.57;3.27;;;16.90;16.50;;;;;;5064030;28;20450;-80
2022/09/04 08:00:07;;;;;;;4.50;3.17;;;17.10;1.00;;;;;;5065370;28;20432;-81
2022/09/04 08:03:05;;;;;;;3.73;3.27;;;17.20;1.00;;;;;;5066559;28;20497;-81
2022/09/04 08:05:37;;;;;;;3.23;3.03;;;17.30;1.00;;;;;;5067731;28;20441;-82
2022/09/04 08:08:30;;;;;;;3.60;2.90;;;17.40;2.80;;;;;;5067212;28;20465;-81
2022/09/04 08:11:12;;;;;;;4.97;3.33;;;17.50;1.00;;;;;;5067927;28;20461;-81
2022/09/04 08:14:05;;;;;;;3.47;3.17;;;17.60;1.00;;;;;;5067871;28;20418;-81
2022/09/04 08:16:43;;;;;;;4.03;3.63;;;17.70;1.00;;;;;;5067260;28;20452;-81
2022/09/04 08:19:34;;;;;;;3.80;3.40;;;17.80;99.90;;;;;;5064731;28;20528;-80
2022/09/04 08:22:04;;;;;;;4.77;3.50;;;17.90;52.20;;;;;;5064569;28;20426;-81
2022/09/04 08:24:56;;;;;;;3.53;3.23;;;17.90;99.90;;;;;;5065885;28;20814;-80
2022/09/04 08:27:43;;;;;;;6.10;3.70;;;18.50;99.90;;;;;;5066793;28;20532;-80
2022/09/04 08:30:13;;;;;;;3.43;3.13;;;18.10;1.00;;;;;;5066993;28;20489;-81
2022/09/04 08:33:07;;;;;;;6.73;3.57;;;18.20;1.00;;;;;;5062182;28;20536;-81
2022/09/04 08:35:37;;;;;;;4.00;3.63;;;18.20;1.00;;;;;;5067815;28;20430;-81
2022/09/04 08:38:27;;;;;;;3.10;2.80;;;18.50;1.00;;;;;;5070634;28;20503;-81
2022/09/04 08:41:38;;;;;;;4.70;4.20;;;18.30;1.00;;;;;;5072376;28;20434;-82
2022/09/04 08:44:37;;;;;;;4.47;3.83;;;18.40;1.00;;;;;;5033903;28;20449;-81
2022/09/04 08:47:50;;;;;;;4.63;3.70;;;18.50;1.00;;;;;;5048240;28;20446;-81
2022/09/04 08:50:52;;;;;;;3.57;3.27;;;18.50;1.00;;;;;;5025351;28;20450;-81
2022/09/04 08:53:51;;;;;;;3.60;3.10;;;18.70;1.00;;;;;;5072751;28;20532;-82
2022/09/04 08:56:34;;;;;;;5.23;4.30;;;18.70;1.00;;;;;;5072194;28;20818;-84
2022/09/04 08:59:48;;;;;;;5.17;3.67;;;18.80;1.00;;;;;;5071968;28;20485;-81
2022/09/04 09:02:39;;;;;;;4.63;4.20;;;18.90;1.00;;;;;;5070820;28;20509;-82
2022/09/04 09:05:28;;;;;;;3.57;3.27;;;19.00;18.20;;;;;;5071233;28;20494;-80
2022/09/04 09:08:27;;;;;;;4.37;3.90;;;19.10;1.00;;;;;;5071874;28;20477;-81
2022/09/04 09:11:25;;;;;;;4.20;3.90;;;19.20;1.00;;;;;;5074348;28;20434;-81
2022/09/04 09:14:23;;;;;;;4.20;3.37;;;19.30;1.00;;;;;;5074802;28;20436;-81
2022/09/04 09:17:01;;;;;;;3.90;3.60;;;19.40;1.00;;;;;;5062998;28;20449;-81
2022/09/04 09:19:43;;;;;;;3.30;3.10;;;19.40;1.00;;;;;;5066085;28;21053;-82
2022/09/04 09:22:18;;;;;;;4.30;3.97;;;19.50;1.00;;;;;;5067424;28;20430;-82
2022/09/04 09:25:08;;;;;;;3.37;3.07;;;19.60;1.00;;;;;;5069282;28;20425;-82
2022/09/04 09:28:08;;;;;;;4.20;2.30;;;18.00;1.00;;;;;;5069683;28;20504;-84
2022/09/04 09:30:54;;;;;;;2.90;2.70;;;19.70;1.00;;;;;;5068138;28;20441;-82
2022/09/04 09:34:10;;;;;;;6.00;3.67;;;19.80;1.00;;;;;;5064991;28;20521;-82
2022/09/04 09:37:24;;;;;;;3.80;3.50;;;19.80;1.00;;;;;;5059615;28;20418;-82
2022/09/04 09:40:12;;;;;;;3.50;3.20;;;20.00;1.00;;;;;;5022425;28;20481;-82
2022/09/04 09:43:08;;;;;;;4.10;3.27;;;20.00;1.00;;;;;;5057605;28;20434;-82
2022/09/04 09:46:07;;;;;;;3.37;3.13;;;20.10;1.00;;;;;;5057127;28;20434;-81
2022/09/04 09:49:04;;;;;;;10.33;3.87;;;20.20;1.00;;;;;;5055878;28;20464;-82
2022/09/04 09:51:56;;;;;;;3.37;3.10;;;20.30;1.00;;;;;;5056855;28;20914;-82
2022/09/04 09:55:03;;;;;;;7.80;4.30;;;20.30;1.00;;;;;;5057436;28;20434;-81
2022/09/04 09:58:19;;;;;;;3.80;3.00;;;20.30;1.00;;;;;;5062639;28;20500;-82
2022/09/04 10:00:57;;;;;;;2.93;2.73;;;20.30;1.00;;;;;;5062141;28;20655;-83
2022/09/04 10:03:52;;;;;;;4.87;3.00;;;20.40;1.00;;;;;;5058127;28;20433;-82
2022/09/04 10:07:05;;;;;;;3.70;3.40;;;20.50;1.00;;;;;;5058876;28;20571;-80
2022/09/04 10:09:50;;;;;;;4.03;3.70;;;20.50;1.00;;;;;;5070021;22;20520;-72
2022/09/04 10:12:48;;;;;;;2.70;2.50;;;20.60;1.00;;;;;;5054135;28;20434;-73
2022/09/04 10:15:37;;;;;;;4.70;3.40;;;20.60;1.00;;;;;;5054173;28;20438;-73
2022/09/04 10:18:50;;;;;;;4.63;3.10;;;20.70;1.00;;;;;;5054142;28;20473;-71
2022/09/04 10:21:53;;;;;;;3.80;3.50;;;20.80;1.00;;;;;;5054327;28;20438;-71
2022/09/04 10:24:54;;;;;;;3.93;3.53;;;20.80;1.00;;;;;;5054232;28;20806;-72
2022/09/04 10:27:53;;;;;;;5.23;4.70;;;20.80;1.00;;;;;;5054140;28;20430;-72
2022/09/04 10:30:22;;;;;;;5.80;3.40;;;20.90;1.00;;;;;;5050768;28;20838;-72
2022/09/04 10:33:25;;;;;;;4.83;4.00;;;21.00;1.00;;;;;;5054121;28;20456;-72
2022/09/04 10:36:00;;;;;;;3.90;3.07;;;21.00;1.00;;;;;;5054062;28;20440;-73
2022/09/04 10:38:36;;;;;;;3.60;3.23;;;21.10;1.00;;;;;;5053983;28;20485;-72
2022/09/04 10:41:34;;;;;;;6.17;4.23;;;21.10;1.00;;;;;;5054002;28;20832;-73
2022/09/04 10:44:17;;;;;;;3.60;2.77;;;21.20;1.00;;;;;;5053334;28;20461;-73
2022/09/04 10:46:57;;;;;;;4.20;3.80;;;21.20;1.00;;;;;;5054930;28;20457;-73
2022/09/04 10:49:48;;;;;;;9.10;4.43;;;21.20;1.00;;;;;;5053874;28;20472;-73
2022/09/04 10:53:00;;;;;;;5.73;2.87;;;21.30;1.00;;;;;;5055156;28;20446;-73
2022/09/04 10:55:42;;;;;;;7.30;2.53;;;21.40;1.00;;;;;;5054347;28;20489;-72
2022/09/04 10:58:25;;;;;;;2.73;2.53;;;21.50;1.00;;;;;;5053716;28;20844;-72
2022/09/04 11:01:23;;;;;;;6.27;4.17;;;21.50;1.00;;;;;;5053124;28;20426;-72
2022/09/04 11:04:26;;;;;;;3.20;2.80;;;21.50;1.00;;;;;;5027862;28;20477;-73
2022/09/04 11:07:13;;;;;;;3.30;2.73;;;21.60;1.00;;;;;;5053649;28;20440;-73
2022/09/04 11:10:04;;;;;;;2.90;2.70;;;21.60;1.00;;;;;;5052986;28;20477;-72
2022/09/04 11:13:23;;;;;;;3.20;2.90;;;21.70;1.00;;;;;;5053629;28;20980;-73
2022/09/04 11:16:12;;;;;;;3.23;2.53;;;21.70;1.00;;;;;;5052884;28;20437;-73
2022/09/04 11:19:11;;;;;;;2.73;2.53;;;21.70;1.00;;;;;;5052817;28;20473;-72
2022/09/04 11:22:14;;;;;;;4.63;3.43;;;21.70;1.00;;;;;;5047292;28;20453;-72
2022/09/04 11:25:17;;;;;;;3.73;3.43;;;21.70;1.00;;;;;;5052810;28;20438;-73
2022/09/04 11:28:15;;;;;;;4.47;3.30;;;21.60;1.00;;;;;;5053856;28;20950;-72
2022/09/04 11:30:59;;;;;;;3.50;3.17;;;21.90;99.90;;;;;;5052564;28;20830;-72
2022/09/04 11:34:05;;;;;;;3.17;2.87;;;22.00;1.00;;;;;;5054323;28;20437;-73
2022/09/04 11:36:54;;;;;;;5.80;3.67;;;22.10;1.00;;;;;;5053681;28;20751;-72
2022/09/04 11:39:43;;;;;;;2.90;2.60;;;22.10;99.90;;;;;;5053320;28;20486;-72
2022/09/04 11:42:34;;;;;;;6.07;5.20;;;22.10;1.00;;;;;;5050235;28;20454;-73
2022/09/04 11:45:40;;;;;;;6.13;3.00;;;22.10;1.00;;;;;;5052889;28;20545;-73
2022/09/04 11:48:52;;;;;;;5.60;4.30;;;22.10;99.90;;;;;;4996701;28;20871;-72
2022/09/04 11:51:47;;;;;;;6.53;4.87;;;22.20;1.00;;;;;;4991570;28;20956;-74
2022/09/04 11:54:45;;;;;;;4.10;3.60;;;22.20;1.00;;;;;;4991210;28;20431;-73
2022/09/04 11:57:22;;;;;;;8.87;6.70;;;22.20;1.00;;;;;;5043613;28;20499;-72
2022/09/04 12:00:08;;;;;;;4.27;3.60;;;22.20;1.00;;;;;;5053166;28;20485;-73
2022/09/04 12:03:19;;;;;;;7.30;5.97;;;22.20;1.00;;;;;;5052806;28;20797;-72
2022/09/04 12:05:58;;;;;;;9.30;6.87;;;22.30;1.00;;;;;;5052487;28;20426;-72
2022/09/04 12:08:42;;;;;;;9.73;7.90;;;22.30;99.90;;;;;;5052513;28;20469;-73
2022/09/04 12:11:23;;;;;;;8.93;5.80;;;22.30;1.00;;;;;;5052381;28;20910;-72
2022/09/04 12:14:08;;;;;;;7.57;4.70;;;22.40;1.00;;;;;;5056478;28;20821;-72
2022/09/04 12:17:02;;;;;;;13.83;9.43;;;22.50;1.00;;;;;;5056345;28;20850;-73
2022/09/04 12:19:57;;;;;;;6.53;5.47;;;22.50;1.00;;;;;;5056480;28;20851;-74
2022/09/04 12:22:56;;;;;;;8.93;4.90;;;22.50;1.00;;;;;;5050462;28;20906;-73
2022/09/04 12:25:48;;;;;;;23.57;14.50;;;22.60;99.90;;;;;;5056312;28;20473;-73
2022/09/04 12:28:54;;;;;;;3.67;3.37;;;22.30;1.00;;;;;;5056407;28;20838;-72
2022/09/04 12:31:42;;;;;;;3.90;3.60;;;22.60;99.90;;;;;;5030533;28;20452;-73
2022/09/04 12:34:35;;;;;;;5.57;4.00;;;22.70;1.00;;;;;;5056557;28;20429;-72
2022/09/04 12:37:26;;;;;;;7.90;7.10;;;22.70;99.90;;;;;;5056177;28;20453;-72
2022/09/04 12:40:28;;;;;;;3.33;3.03;;;22.70;99.90;;;;;;5056127;28;20517;-72
2022/09/04 12:43:03;;;;;;;3.03;2.50;;;22.60;99.90;;;;;;5053895;28;20453;-73
2022/09/04 12:45:39;;;;;;;24.20;15.23;;;22.60;99.90;;;;;;5055824;28;20918;-72
2022/09/04 12:48:17;;;;;;;4.93;4.20;;;22.70;99.90;;;;;;5056670;28;20519;-72
2022/09/04 12:50:51;;;;;;;4.70;3.73;;;22.70;99.90;;;;;;5055995;28;20425;-72
2022/09/04 12:53:44;;;;;;;5.40;4.60;;;22.70;99.90;;;;;;5055564;28;20430;-72
2022/09/04 12:56:16;;;;;;;7.40;5.50;;;22.80;99.90;;;;;;5056494;28;20806;-72
2022/09/04 12:59:00;;;;;;;7.40;4.30;;;22.80;99.90;;;;;;5056213;28;20473;-73
2022/09/04 13:01:40;;;;;;;7.77;6.07;;;22.90;99.90;;;;;;5055625;28;20914;-72
2022/09/04 13:04:18;;;;;;;5.83;4.00;;;22.80;99.90;;;;;;5055840;28;20436;-72
2022/09/04 13:06:58;;;;;;;3.70;3.23;;;22.80;99.90;;;;;;5055480;28;20910;-72
2022/09/04 13:09:31;;;;;;;8.80;6.60;;;22.80;99.90;;;;;;5055449;28;20533;-73
2022/09/04 13:12:09;;;;;;;6.20;4.50;;;22.90;99.90;;;;;;5056001;28;20437;-73
2022/09/04 13:15:23;;;;;;;5.67;4.73;;;22.90;99.90;;;;;;5055503;28;20441;-73
2022/09/04 13:18:01;;;;;;;7.20;4.47;;;22.90;99.90;;;;;;5050235;28;20551;-73
2022/09/04 13:20:39;;;;;;;4.23;3.07;;;22.80;99.90;;;;;;5055015;28;20554;-72
2022/09/04 13:23:19;;;;;;;7.83;6.70;;;22.80;99.90;;;;;;5054886;28;20521;-72
2022/09/04 13:26:00;;;;;;;6.40;4.10;;;22.90;99.90;;;;;;5054737;28;20437;-72
2022/09/04 13:28:39;;;;;;;8.73;7.83;;;22.90;99.90;;;;;;5055041;28;20468;-72
2022/09/04 13:31:32;;;;;;;4.50;4.07;;;22.90;99.90;;;;;;5054956;28;20449;-72
2022/09/04 13:34:04;;;;;;;9.03;5.70;;;22.80;99.90;;;;;;5054713;28;20505;-72
2022/09/04 13:36:39;;;;;;;5.23;4.70;;;22.90;99.90;;;;;;5055304;28;20429;-72
2022/09/04 13:39:53;;;;;;;5.27;3.93;;;22.90;99.90;;;;;;5055873;28;20465;-72
2022/09/04 13:42:48;;;;;;;4.33;3.93;;;22.90;99.90;;;;;;4999355;28;20450;-72
2022/09/04 13:45:22;;;;;;;9.43;3.33;;;22.90;99.90;;;;;;5055775;28;20441;-72
2022/09/04 13:47:55;;;;;;;5.63;4.40;;;23.00;99.90;;;;;;5055120;28;20469;-72
2022/09/04 13:50:28;;;;;;;4.43;3.57;;;23.00;99.90;;;;;;5054895;28;20430;-72
2022/09/04 13:52:58;;;;;;;5.47;4.87;;;23.00;99.90;;;;;;5054430;28;20422;-72
2022/09/04 13:55:29;;;;;;;8.00;6.20;;;23.00;99.90;;;;;;5054898;28;20449;-72
2022/09/04 13:58:09;;;;;;;7.07;6.27;;;23.00;99.90;;;;;;5054605;28;20465;-71
2022/09/04 14:00:39;;;;;;;3.93;3.63;;;23.10;99.90;;;;;;5054602;28;20470;-71
2022/09/04 14:03:11;;;;;;;3.10;2.90;;;23.20;99.90;;;;;;5054854;28;20445;-72
2022/09/04 14:05:39;;;;;;;3.70;3.40;;;23.30;99.90;;;;;;5057488;28;20434;-72
2022/09/04 14:08:13;;;;;;;3.77;3.40;;;23.40;99.90;;;;;;5057129;28;20480;-72
2022/09/04 14:11:04;;;;;;;4.60;3.77;;;23.50;99.90;;;;;;5054804;28;20548;-73
2022/09/04 14:13:50;;;;;;;7.30;5.13;;;23.40;99.90;;;;;;5054411;28;20489;-73
2022/09/04 14:16:18;;;;;;;4.37;3.97;;;23.40;99.90;;;;;;5054537;28;20517;-72
2022/09/04 14:18:56;;;;;;;6.00;4.47;;;23.40;99.90;;;;;;5054353;28;20469;-72
2022/09/04 14:21:35;;;;;;;5.10;4.57;;;23.30;99.90;;;;;;5054317;28;20496;-72
2022/09/04 14:24:07;;;;;;;3.40;2.87;;;23.30;99.90;;;;;;5055564;28;20430;-73
2022/09/04 14:26:42;;;;;;;7.07;4.50;;;23.30;99.90;;;;;;5054867;28;20441;-72
2022/09/04 14:29:22;;;;;;;4.00;3.53;;;23.40;99.90;;;;;;5054265;28;20558;-72